Time;durP1;ratioP1;P1;durP2;ratioP2;P2;SDS_P1;SDS_P2;PMS_P1;PMS_P2;Temp;Humidity;BMP_temperature;BMP_pressure;BME280_temperature;BME280_humidity;BME280_pressure;Samples;Min_cycle;Max_cycle;Signal;HPM_P1;HPM_P2
2023/09/05 00:00:06;;;;;;;3.23;2.40;;;;;;;19.40;61.56;98603.59;5074228;28;20224;-77
2023/09/05 00:02:33;;;;;;;2.77;2.57;;;;;;;19.43;60.40;98599.56;5074218;28;20249;-77
2023/09/05 00:04:59;;;;;;;2.77;2.40;;;;;;;19.52;58.92;98601.50;5073795;28;20679;-77
2023/09/05 00:07:27;;;;;;;2.53;2.33;;;;;;;19.60;58.21;98590.19;5073658;28;20700;-77
2023/09/05 00:09:57;;;;;;;2.43;2.23;;;;;;;19.51;57.91;98591.78;5073674;28;20228;-77
2023/09/05 00:12:23;;;;;;;2.60;2.40;;;;;;;19.46;59.55;98585.56;5073643;28;20588;-77
2023/09/05 00:14:50;;;;;;;2.60;2.27;;;;;;;19.42;59.43;98587.97;5074021;28;20204;-77
2023/09/05 00:17:16;;;;;;;4.57;2.43;;;;;;;19.34;60.14;98574.16;5073898;28;20204;-77
2023/09/05 00:19:42;;;;;;;2.67;2.47;;;;;;;19.31;60.78;98578.19;5073824;28;20228;-77
2023/09/05 00:22:09;;;;;;;3.37;3.07;;;;;;;19.34;60.65;98577.69;5073852;28;20206;-77
2023/09/05 00:24:38;;;;;;;2.93;2.63;;;;;;;19.28;62.09;98581.41;5074366;28;20215;-75
2023/09/05 00:27:09;;;;;;;3.27;2.90;;;;;;;19.25;62.95;98570.34;5074246;28;20224;-75
2023/09/05 00:29:36;;;;;;;3.97;2.60;;;;;;;19.27;61.52;98574.41;5074655;28;20221;-75
2023/09/05 00:32:03;;;;;;;5.20;3.17;;;;;;;19.23;62.29;98573.31;5075103;28;20586;-75
2023/09/05 00:34:32;;;;;;;3.83;2.93;;;;;;;19.19;62.85;98576.75;5074671;28;20733;-75
2023/09/05 00:37:00;;;;;;;3.77;2.60;;;;;;;19.15;63.85;98572.97;5074293;28;20254;-75
2023/09/05 00:39:30;;;;;;;4.53;3.00;;;;;;;19.06;65.02;98575.34;5074030;28;20233;-75
2023/09/05 00:41:57;;;;;;;3.40;2.80;;;;;;;18.96;64.72;98579.84;5075086;28;20204;-75
2023/09/05 00:44:28;;;;;;;3.57;3.10;;;;;;;18.92;65.09;98586.84;5074196;28;20208;-75
2023/09/05 00:46:56;;;;;;;3.37;2.83;;;;;;;18.87;65.45;98581.41;5074864;28;20227;-75
2023/09/05 00:49:27;;;;;;;3.37;3.07;;;;;;;18.82;66.96;98576.00;5073868;28;20228;-75
2023/09/05 00:51:56;;;;;;;3.20;2.70;;;;;;;18.76;66.17;98577.84;5074027;28;20636;-75
2023/09/05 00:54:22;;;;;;;3.70;3.30;;;;;;;18.75;66.95;98572.69;5074371;28;20215;-75
2023/09/05 00:56:50;;;;;;;3.27;2.90;;;;;;;18.77;64.57;98574.06;5074713;28;20204;-75
2023/09/05 00:59:16;;;;;;;6.70;3.20;;;;;;;18.73;64.95;98572.94;5074184;28;20315;-75
2023/09/05 01:01:43;;;;;;;3.87;2.70;;;;;;;18.69;66.35;98574.53;5074274;28;20214;-75
2023/09/05 01:04:09;;;;;;;4.90;3.27;;;;;;;18.69;65.29;98579.91;5074784;28;20205;-75
2023/09/05 01:06:57;;;;;;;3.43;2.80;;;;;;;18.71;65.48;98582.34;5075011;28;20299;-75
2023/09/05 01:09:29;;;;;;;4.20;3.10;;;;;;;18.68;66.10;98572.13;5074580;28;20580;-75
2023/09/05 01:11:57;;;;;;;4.13;3.17;;;;;;;18.65;66.84;98576.16;5074499;28;20209;-75
2023/09/05 01:14:23;;;;;;;3.50;3.20;;;;;;;18.63;66.57;98583.66;5074621;28;20210;-75
2023/09/05 01:16:50;;;;;;;4.33;3.23;;;;;;;18.58;68.54;98582.78;5075119;28;20202;-75
2023/09/05 01:19:17;;;;;;;5.70;3.40;;;;;;;18.48;68.50;98586.22;5074439;28;20239;-75
2023/09/05 01:21:59;;;;;;;4.13;3.00;;;;;;;18.29;70.37;98582.25;5074362;28;20223;-75
2023/09/05 01:24:26;;;;;;;3.53;3.23;;;;;;;18.17;72.06;98586.97;5074335;28;20199;-75
2023/09/05 01:26:54;;;;;;;3.20;2.90;;;;;;;18.07;72.93;98594.97;5074498;28;20225;-75
2023/09/05 01:29:26;;;;;;;3.77;3.27;;;;;;;17.92;72.07;98591.28;5074223;28;20251;-75
2023/09/05 01:31:54;;;;;;;4.50;3.17;;;;;;;17.86;72.83;98593.09;5074297;28;20222;-75
2023/09/05 01:34:21;;;;;;;4.23;3.00;;;;;;;17.72;74.11;98596.44;5074013;28;20209;-75
2023/09/05 01:36:47;;;;;;;3.40;3.00;;;;;;;17.66;75.75;98592.88;5074472;28;20223;-75
2023/09/05 01:39:13;;;;;;;4.63;3.13;;;;;;;17.66;75.94;98597.44;5074529;28;20229;-75
2023/09/05 01:41:40;;;;;;;3.83;2.87;;;;;;;17.56;76.66;98590.03;5057084;28;20231;-75
2023/09/05 01:44:06;;;;;;;3.00;2.80;;;;;;;17.63;75.84;98589.88;5074877;28;20207;-75
2023/09/05 01:46:33;;;;;;;4.30;2.83;;;;;;;17.63;77.77;98585.31;5074151;28;20224;-75
2023/09/05 01:48:59;;;;;;;3.20;2.90;;;;;;;17.61;76.99;98584.75;5075646;28;20221;-75
2023/09/05 01:51:25;;;;;;;3.57;3.03;;;;;;;17.52;77.55;98574.69;5078242;28;20205;-75
2023/09/05 01:53:52;;;;;;;3.37;3.00;;;;;;;17.56;78.46;98571.22;5077729;28;20208;-75
2023/09/05 01:56:18;;;;;;;3.37;2.80;;;;;;;17.62;78.16;98575.63;5077870;28;20204;-75
2023/09/05 01:58:44;;;;;;;3.27;2.40;;;;;;;17.62;77.30;98572.94;5077890;28;20230;-75
2023/09/05 02:01:11;;;;;;;2.90;2.37;;;;;;;17.58;78.40;98565.59;5078286;28;20272;-75
2023/09/05 02:03:37;;;;;;;3.30;2.73;;;;;;;17.50;80.12;98566.88;5077590;28;20200;-75
2023/09/05 02:06:03;;;;;;;2.57;2.37;;;;;;;17.56;77.84;98563.16;5077956;28;20290;-75
2023/09/05 02:08:30;;;;;;;3.70;2.63;;;;;;;17.63;74.67;98565.66;5077614;28;20204;-77
2023/09/05 02:10:56;;;;;;;2.67;2.40;;;;;;;17.61;77.75;98570.50;5077670;28;20212;-75
2023/09/05 02:13:23;;;;;;;2.60;2.33;;;;;;;17.64;82.23;98559.25;5077747;28;20209;-76
2023/09/05 02:15:49;;;;;;;2.40;2.20;;;;;;;17.76;75.50;98568.78;5077729;28;20207;-75
2023/09/05 02:18:15;;;;;;;3.17;2.20;;;;;;;17.84;72.92;98571.03;5077495;28;20196;-75
2023/09/05 02:20:42;;;;;;;2.60;2.40;;;;;;;17.80;76.60;98559.16;5077584;28;20220;-75
2023/09/05 02:23:08;;;;;;;2.60;2.40;;;;;;;17.79;75.92;98560.22;5076662;28;20204;-76
2023/09/05 02:25:35;;;;;;;2.23;1.90;;;;;;;17.84;72.81;98557.59;5076462;28;20208;-75
2023/09/05 02:28:01;;;;;;;2.67;2.47;;;;;;;17.82;73.40;98553.53;5076327;28;20228;-75
2023/09/05 02:30:28;;;;;;;2.53;2.13;;;;;;;17.89;73.12;98565.72;5076360;28;20221;-75
2023/09/05 02:32:55;;;;;;;2.90;2.47;;;;;;;17.84;73.79;98568.34;5076301;28;20215;-75
2023/09/05 02:35:28;;;;;;;2.30;2.10;;;;;;;17.88;73.44;98563.28;5076227;28;20200;-75
2023/09/05 02:37:56;;;;;;;5.80;2.30;;;;;;;17.99;73.19;98570.38;5075920;28;20208;-75
2023/09/05 02:40:23;;;;;;;2.87;2.60;;;;;;;17.97;71.85;98570.63;5076225;28;20224;-75
2023/09/05 02:42:49;;;;;;;2.60;2.40;;;;;;;17.93;73.33;98566.00;5075869;28;20672;-75
2023/09/05 02:45:15;;;;;;;2.00;1.90;;;;;;;17.97;71.22;98570.63;5075567;28;20208;-76
2023/09/05 02:47:42;;;;;;;2.60;2.37;;;;;;;17.91;75.45;98574.31;5075507;28;20699;-75
2023/09/05 02:50:08;;;;;;;2.37;2.00;;;;;;;17.82;75.34;98575.84;5075752;28;20225;-75
2023/09/05 02:52:34;;;;;;;2.30;2.10;;;;;;;17.79;75.43;98570.16;5077490;28;20201;-75
2023/09/05 02:55:02;;;;;;;2.83;2.40;;;;;;;17.74;75.29;98578.97;5077140;28;20226;-75
2023/09/05 02:57:29;;;;;;;2.93;2.40;;;;;;;17.68;77.48;98582.69;5077504;28;20200;-75
2023/09/05 02:59:56;;;;;;;2.50;2.30;;;;;;;17.57;77.11;98590.88;5076731;28;20235;-75
2023/09/05 03:02:25;;;;;;;4.73;2.27;;;;;;;17.54;75.79;98584.13;5077216;28;20204;-75
2023/09/05 03:04:55;;;;;;;3.27;2.37;;;;;;;17.48;78.40;98587.00;5077912;28;20282;-75
2023/09/05 03:07:22;;;;;;;4.20;2.27;;;;;;;17.47;77.01;98583.47;5077134;28;20221;-75
2023/09/05 03:09:52;;;;;;;3.53;2.30;;;;;;;17.48;77.11;98590.50;5076615;28;20310;-75
2023/09/05 03:12:19;;;;;;;3.37;2.40;;;;;;;17.37;77.06;98583.34;5076688;28;20572;-75
2023/09/05 03:14:46;;;;;;;3.77;2.53;;;;;;;17.41;77.05;98589.06;5077019;28;20209;-75
2023/09/05 03:17:12;;;;;;;3.27;2.47;;;;;;;17.31;80.08;98592.41;5076625;28;20203;-75
2023/09/05 03:19:41;;;;;;;3.20;2.33;;;;;;;17.34;80.93;98593.78;5076852;28;20225;-75
2023/09/05 03:22:08;;;;;;;2.80;2.50;;;;;;;17.31;80.77;98580.81;5076775;28;20205;-75
2023/09/05 03:24:35;;;;;;;3.10;2.23;;;;;;;17.27;83.29;98587.75;5076936;28;20205;-75
2023/09/05 03:27:03;;;;;;;2.40;2.20;;;;;;;17.27;82.45;98577.81;5076332;28;20228;-75
2023/09/05 03:29:30;;;;;;;2.60;2.40;;;;;;;17.36;81.25;98586.25;5076014;28;20228;-75
2023/09/05 03:31:56;;;;;;;3.87;2.67;;;;;;;17.37;80.76;98583.34;5076386;28;20204;-75
2023/09/05 03:34:22;;;;;;;4.93;2.47;;;;;;;17.45;79.62;98582.09;5075925;28;20667;-75
2023/09/05 03:36:49;;;;;;;2.40;2.20;;;;;;;17.45;80.10;98582.09;5076301;28;20207;-75
2023/09/05 03:39:16;;;;;;;2.60;2.23;;;;;;;17.45;79.97;98576.72;5075324;28;20232;-75
2023/09/05 03:41:43;;;;;;;3.87;2.50;;;;;;;17.42;79.87;98580.72;5075291;28;20206;-75
2023/09/05 03:44:09;;;;;;;2.60;2.40;;;;;;;17.41;78.95;98575.63;5074991;28;20211;-75
2023/09/05 03:46:35;;;;;;;3.50;2.30;;;;;;;17.49;78.65;98576.00;5075329;28;20208;-75
2023/09/05 03:49:02;;;;;;;2.47;2.27;;;;;;;17.56;79.41;98568.53;5075596;28;20228;-75
2023/09/05 03:51:29;;;;;;;3.63;2.47;;;;;;;17.56;78.73;98571.22;5075766;28;20204;-75
2023/09/05 03:53:59;;;;;;;3.50;2.50;;;;;;;17.54;78.93;98568.00;5075968;28;20201;-75
2023/09/05 03:56:25;;;;;;;2.63;2.43;;;;;;;17.50;79.03;98566.88;5075742;28;20222;-75
2023/09/05 03:58:52;;;;;;;2.60;2.40;;;;;;;17.53;79.12;98568.25;5075157;28;20224;-75
2023/09/05 04:01:18;;;;;;;3.80;2.40;;;;;;;17.51;79.91;98571.16;5074851;28;20201;-75
2023/09/05 04:03:45;;;;;;;2.40;2.20;;;;;;;17.53;79.49;98558.31;5074502;28;20216;-75
2023/09/05 04:06:12;;;;;;;3.07;2.20;;;;;;;17.46;81.12;98568.41;5083385;28;20249;-77
2023/09/05 04:08:38;;;;;;;2.40;2.13;;;;;;;17.44;80.54;98565.19;5092782;28;20698;-77
2023/09/05 04:11:04;;;;;;;2.37;2.17;;;;;;;17.42;81.36;98564.59;5084641;28;20207;-77
2023/09/05 04:13:31;;;;;;;3.10;2.60;;;;;;;17.37;81.51;98566.41;5073960;28;20204;-79
2023/09/05 04:16:04;;;;;;;3.90;2.70;;;;;;;17.43;81.76;98566.25;5074075;28;20201;-77
2023/09/05 04:18:30;;;;;;;2.63;2.40;;;;;;;17.40;82.32;98564.06;5073700;28;20189;-77
2023/09/05 04:20:59;;;;;;;3.63;2.60;;;;;;;17.39;82.08;98561.59;5077654;28;20204;-77
2023/09/05 04:23:26;;;;;;;3.07;2.40;;;;;;;17.36;81.94;98562.06;5092050;28;20200;-77
2023/09/05 04:25:57;;;;;;;2.53;2.33;;;;;;;17.38;81.76;98562.66;5093797;28;20624;-77
2023/09/05 04:28:24;;;;;;;2.73;2.53;;;;;;;17.39;81.96;98565.13;5093856;28;20223;-77
2023/09/05 04:30:50;;;;;;;3.00;2.43;;;;;;;17.35;82.28;98561.28;5088519;28;20203;-77
2023/09/05 04:33:17;;;;;;;3.40;2.67;;;;;;;17.30;83.48;98560.41;5073224;28;20205;-77
2023/09/05 04:35:43;;;;;;;3.10;2.67;;;;;;;17.25;84.93;98569.22;5073324;28;20208;-77
2023/09/05 04:38:10;;;;;;;3.63;2.67;;;;;;;17.30;84.14;98561.22;5074989;28;20193;-77
2023/09/05 04:40:35;;;;;;;3.43;2.97;;;;;;;17.29;83.21;98559.56;5081717;28;20269;-77
2023/09/05 04:43:03;;;;;;;3.03;2.13;;;;;;;17.33;83.43;98565.28;5080146;28;20201;-77
2023/09/05 04:45:29;;;;;;;3.87;2.80;;;;;;;17.35;84.02;98563.97;5073164;28;20228;-77
2023/09/05 04:47:56;;;;;;;3.10;2.73;;;;;;;17.26;83.90;98565.47;5073059;28;20274;-77
2023/09/05 04:50:23;;;;;;;5.07;2.50;;;;;;;17.21;83.69;98567.25;5073008;28;20741;-77
2023/09/05 04:52:49;;;;;;;4.30;3.00;;;;;;;17.19;85.20;98558.66;5073049;28;20197;-77
2023/09/05 04:55:15;;;;;;;3.80;2.43;;;;;;;17.18;86.64;98565.06;5077352;28;20218;-77
2023/09/05 04:57:42;;;;;;;3.47;2.77;;;;;;;17.14;89.24;98559.38;5091160;28;20208;-77
2023/09/05 05:00:09;;;;;;;4.10;2.90;;;;;;;17.10;90.02;98560.13;5092182;28;20223;-77
2023/09/05 05:02:36;;;;;;;5.27;2.90;;;;;;;17.05;90.67;98560.06;5092632;28;20552;-78
2023/09/05 05:05:02;;;;;;;3.93;3.10;;;;;;;17.14;88.02;98562.06;5092740;28;20250;-77
2023/09/05 05:07:28;;;;;;;3.13;2.60;;;;;;;17.23;87.82;98565.16;5092402;28;20333;-77
2023/09/05 05:09:55;;;;;;;3.07;2.50;;;;;;;17.32;87.09;98563.66;5092830;28;20239;-77
2023/09/05 05:12:21;;;;;;;3.37;2.80;;;;;;;17.33;86.95;98568.75;5093427;28;20199;-77
2023/09/05 05:14:48;;;;;;;5.37;2.67;;;;;;;17.37;86.09;98566.41;5093868;28;20204;-77
2023/09/05 05:17:14;;;;;;;4.23;2.80;;;;;;;17.33;90.03;98568.75;5092900;28;20544;-77
2023/09/05 05:19:41;;;;;;;7.03;2.80;;;;;;;17.29;89.47;98570.31;5093197;28;20220;-78
2023/09/05 05:22:07;;;;;;;4.60;3.30;;;;;;;17.35;90.26;98576.56;5092500;28;20572;-76
2023/09/05 05:24:34;;;;;;;5.23;3.20;;;;;;;17.38;90.56;98576.88;5096130;28;20203;-76
2023/09/05 05:27:00;;;;;;;4.90;2.97;;;;;;;17.41;90.42;98575.63;5097278;28;20204;-76
2023/09/05 05:29:31;;;;;;;4.33;3.00;;;;;;;17.49;89.79;98576.00;5098771;28;20593;-78
2023/09/05 05:31:58;;;;;;;5.23;3.13;;;;;;;17.46;89.44;98575.69;5098383;28;20191;-78
2023/09/05 05:34:24;;;;;;;5.03;3.20;;;;;;;17.38;89.96;98578.78;5098656;28;20207;-78
2023/09/05 05:36:51;;;;;;;8.03;2.87;;;;;;;17.51;91.37;98586.50;5098366;28;20564;-78
2023/09/05 05:39:21;;;;;;;4.70;2.97;;;;;;;17.50;91.53;98577.63;5098029;28;20578;-78
2023/09/05 05:41:48;;;;;;;4.47;3.30;;;;;;;17.58;92.43;98577.19;5098209;28;20275;-78
2023/09/05 05:44:14;;;;;;;5.50;3.07;;;;;;;17.69;90.64;98570.84;5097377;28;20212;-78
2023/09/05 05:46:41;;;;;;;5.13;2.97;;;;;;;17.78;87.36;98577.41;5098067;28;20218;-78
2023/09/05 05:49:08;;;;;;;4.83;3.13;;;;;;;17.93;87.39;98582.16;5097880;28;20233;-78
2023/09/05 05:51:34;;;;;;;4.47;3.00;;;;;;;17.99;87.38;98576.56;5098078;28;20567;-78
2023/09/05 05:54:00;;;;;;;3.13;2.60;;;;;;;18.11;84.07;98574.56;5089120;28;20196;-78
2023/09/05 05:56:27;;;;;;;5.43;3.10;;;;;;;18.16;85.40;98585.38;5077266;28;20676;-78
2023/09/05 05:58:53;;;;;;;5.93;3.43;;;;;;;18.27;83.01;98581.69;5076679;28;20220;-76
2023/09/05 06:01:19;;;;;;;3.97;2.87;;;;;;;18.31;83.48;98582.81;5078014;28;20207;-76
2023/09/05 06:03:46;;;;;;;4.70;3.10;;;;;;;18.36;82.26;98582.06;5078601;28;20215;-75
2023/09/05 06:06:13;;;;;;;6.17;3.10;;;;;;;18.36;83.80;98580.19;5078629;28;20208;-75
2023/09/05 06:08:40;;;;;;;5.13;3.20;;;;;;;18.48;82.53;98580.84;5077454;28;20230;-75
2023/09/05 06:11:07;;;;;;;4.70;3.10;;;;;;;18.63;79.23;98575.56;5077459;28;20185;-75
2023/09/05 06:13:33;;;;;;;6.60;3.03;;;;;;;18.68;80.42;98575.59;5075518;28;20214;-76
2023/09/05 06:16:00;;;;;;;4.43;2.90;;;;;;;18.79;79.13;98576.50;5076034;28;20258;-76
2023/09/05 06:18:26;;;;;;;5.47;2.97;;;;;;;18.79;79.44;98581.88;5075584;28;20205;-76
2023/09/05 06:20:53;;;;;;;5.03;3.20;;;;;;;18.86;78.33;98580.59;5076211;28;20215;-76
2023/09/05 06:23:19;;;;;;;3.70;2.90;;;;;;;19.05;75.45;98589.09;5076268;28;20208;-76
2023/09/05 06:25:45;;;;;;;4.27;3.47;;;;;;;19.08;76.19;98585.84;5076912;28;20532;-76
2023/09/05 06:28:12;;;;;;;5.97;3.40;;;;;;;19.19;74.75;98588.34;5085128;28;20212;-76
2023/09/05 06:30:39;;;;;;;4.73;3.80;;;;;;;19.22;73.61;98582.47;5087007;28;20270;-76
2023/09/05 06:33:05;;;;;;;3.30;3.00;;;;;;;19.22;75.00;98582.47;5084823;28;20196;-76
2023/09/05 06:35:31;;;;;;;4.87;2.90;;;;;;;19.30;73.60;98590.06;5081968;28;20192;-76
2023/09/05 06:37:58;;;;;;;4.33;3.00;;;;;;;19.32;75.17;98581.72;5085280;28;20193;-76
2023/09/05 06:40:24;;;;;;;7.47;3.50;;;;;;;19.37;73.73;98587.13;5087878;28;20303;-76
2023/09/05 06:42:52;;;;;;;5.97;3.33;;;;;;;19.49;72.25;98585.03;5085123;28;20211;-76
2023/09/05 06:45:19;;;;;;;4.13;2.83;;;;;;;19.48;73.04;98588.00;5087685;28;20195;-76
2023/09/05 06:47:45;;;;;;;4.43;2.87;;;;;;;19.64;72.89;98590.50;5088228;28;20296;-76
2023/09/05 06:50:12;;;;;;;4.87;2.70;;;;;;;19.68;73.08;98595.09;5086947;28;20224;-76
2023/09/05 06:52:38;;;;;;;3.13;2.70;;;;;;;19.72;72.97;98591.88;5083144;28;20207;-76
2023/09/05 06:55:05;;;;;;;2.60;2.20;;;;;;;19.84;73.45;98587.06;5085126;28;20208;-76
2023/09/05 06:57:32;;;;;;;3.50;2.40;;;;;;;19.91;72.28;98595.72;5087278;28;20207;-76
2023/09/05 06:59:59;;;;;;;2.67;2.30;;;;;;;20.01;71.17;98601.97;5085799;28;20243;-76
2023/09/05 07:02:25;;;;;;;3.03;2.60;;;;;;;20.02;72.30;98608.19;5085584;28;20210;-76
2023/09/05 07:04:52;;;;;;;3.40;2.60;;;;;;;20.22;71.37;98603.66;5087094;28;20317;-76
2023/09/05 07:07:18;;;;;;;2.63;2.20;;;;;;;20.13;72.14;98604.44;5084296;28;20192;-76
2023/09/05 07:09:44;;;;;;;4.13;2.10;;;;;;;20.34;69.68;98606.91;5086100;28;20226;-76
2023/09/05 07:12:11;;;;;;;5.67;2.77;;;;;;;20.37;70.37;98609.09;5084108;28;20205;-76
2023/09/05 07:14:37;;;;;;;3.93;3.07;;;;;;;20.39;70.09;98609.63;5076212;28;20204;-76
2023/09/05 07:17:06;;;;;;;3.80;2.70;;;;;;;20.31;70.85;98612.03;5076242;28;20201;-76
2023/09/05 07:19:32;;;;;;;2.87;2.57;;;;;;;20.52;69.78;98609.09;5076183;28;20229;-76
2023/09/05 07:21:58;;;;;;;2.83;2.47;;;;;;;20.48;70.11;98609.91;5076112;28;20283;-76
2023/09/05 07:24:25;;;;;;;3.43;2.60;;;;;;;20.64;68.16;98606.13;5075756;28;20582;-76
2023/09/05 07:26:51;;;;;;;4.70;2.03;;;;;;;20.71;69.20;98603.97;5079803;28;20605;-76
2023/09/05 07:29:18;;;;;;;4.07;2.20;;;;;;;20.71;67.65;98612.09;5075702;28;20232;-76
2023/09/05 07:31:44;;;;;;;5.17;2.67;;;;;;;20.61;68.60;98603.97;5075563;28;20204;-76
2023/09/05 07:34:10;;;;;;;2.93;2.63;;;;;;;20.74;67.66;98601.53;5075585;28;20204;-76
2023/09/05 07:36:39;;;;;;;4.57;2.40;;;;;;;20.83;67.16;98607.19;5075623;28;20290;-76
2023/09/05 07:39:05;;;;;;;3.50;2.50;;;;;;;20.91;65.49;98601.28;5075631;28;20224;-76
2023/09/05 07:41:33;;;;;;;2.87;2.53;;;;;;;20.99;64.50;98592.63;5075493;28;20691;-76
2023/09/05 07:44:00;;;;;;;3.03;2.77;;;;;;;20.95;65.06;98603.19;5088860;28;20216;-76
2023/09/05 07:46:27;;;;;;;3.10;2.80;;;;;;;20.99;65.48;98608.84;5095670;28;20203;-76
2023/09/05 07:48:53;;;;;;;3.40;2.40;;;;;;;21.13;64.41;98604.50;5095310;28;20640;-74
2023/09/05 07:51:22;;;;;;;5.73;2.27;;;;;;;21.23;64.06;98605.31;5095168;28;20227;-77
2023/09/05 07:53:50;;;;;;;4.43;2.33;;;;;;;21.35;64.43;98594.97;5095420;28;20214;-74
2023/09/05 07:56:17;;;;;;;4.67;2.17;;;;;;;21.48;63.83;98590.91;5095294;28;20204;-74
2023/09/05 07:58:43;;;;;;;2.70;2.10;;;;;;;21.66;63.81;98587.59;5095596;28;20220;-75
2023/09/05 08:01:10;;;;;;;2.33;2.00;;;;;;;21.64;61.27;98589.75;5095128;28;20201;-75
2023/09/05 08:03:39;;;;;;;4.60;2.30;;;;;;;21.78;61.81;98590.78;5095885;28;20204;-75
2023/09/05 08:06:06;;;;;;;2.90;2.20;;;;;;;21.82;61.30;98592.69;5095567;28;20207;-75
2023/09/05 08:08:33;;;;;;;2.47;2.17;;;;;;;21.82;60.96;98589.97;5094347;28;20228;-71
2023/09/05 08:10:59;;;;;;;3.07;2.20;;;;;;;22.00;59.72;98599.34;5093967;28;20226;-71
2023/09/05 08:13:25;;;;;;;2.67;2.47;;;;;;;21.77;59.96;98587.31;5094228;28;20208;-71
2023/09/05 08:15:53;;;;;;;3.80;3.50;;;;;;;21.85;60.52;98596.72;5094207;28;20207;-72
2023/09/05 08:18:19;;;;;;;2.47;2.27;;;;;;;21.99;60.50;98590.44;5093892;28;20291;-71
2023/09/05 08:20:46;;;;;;;2.67;2.17;;;;;;;21.95;57.77;98593.97;5093930;28;20227;-71
2023/09/05 08:23:13;;;;;;;3.53;2.30;;;;;;;21.95;58.85;98588.56;5093666;28;20250;-72
2023/09/05 08:25:39;;;;;;;3.00;2.07;;;;;;;22.13;58.78;98591.44;5093723;28;20208;-71
2023/09/05 08:28:07;;;;;;;2.43;2.03;;;;;;;22.17;58.63;98588.97;5093534;28;20710;-72
2023/09/05 08:30:33;;;;;;;1.97;1.87;;;;;;;22.23;58.44;98585.97;5093757;28;20274;-72
2023/09/05 08:33:03;;;;;;;3.50;1.90;;;;;;;22.26;58.11;98588.13;5093562;28;20226;-72
2023/09/05 08:35:30;;;;;;;2.90;1.90;;;;;;;22.25;57.29;98589.19;5093576;28;20210;-72
2023/09/05 08:37:57;;;;;;;2.70;1.90;;;;;;;22.41;57.85;98589.88;5093628;28;20199;-71
2023/09/05 08:40:23;;;;;;;2.30;2.10;;;;;;;22.36;57.82;98588.03;5093772;28;20273;-72
2023/09/05 08:42:51;;;;;;;3.17;2.00;;;;;;;22.41;57.32;98587.19;5093215;28;20208;-72
2023/09/05 08:45:22;;;;;;;3.10;2.00;;;;;;;22.38;58.52;98585.84;5093049;28;20253;-72
2023/09/05 08:47:49;;;;;;;3.50;1.88;;;;;;;22.44;56.26;98586.63;5093168;28;20679;-72
2023/09/05 08:50:16;;;;;;;2.28;2.08;;;;;;;22.46;57.43;98587.16;5093093;28;20232;-72
2023/09/05 08:52:44;;;;;;;2.58;2.10;;;;;;;22.64;57.41;98587.31;5093337;28;20603;-72
2023/09/05 08:55:13;;;;;;;2.38;2.00;;;;;;;22.63;56.18;98591.13;5093426;28;20214;-72
2023/09/05 08:57:41;;;;;;;4.43;2.20;;;;;;;22.68;56.48;98590.25;5093206;28;20200;-72
2023/09/05 09:00:08;;;;;;;2.20;2.00;;;;;;;22.73;55.88;98579.38;5092976;28;20230;-71
2023/09/05 09:02:35;;;;;;;2.70;2.20;;;;;;;22.83;55.97;98582.81;5092972;28;20572;-72
2023/09/05 09:05:02;;;;;;;4.75;1.95;;;;;;;22.97;54.31;98582.97;5093178;28;20212;-72
2023/09/05 09:07:29;;;;;;;1.95;1.75;;;;;;;22.95;55.35;98574.28;5092982;28;20204;-71
2023/09/05 09:09:57;;;;;;;1.92;1.63;;;;;;;22.99;54.89;98568.03;5092897;28;20231;-72
2023/09/05 09:12:31;;;;;;;2.75;1.80;;;;;;;22.99;55.33;98570.75;5093411;28;20204;-72
2023/09/05 09:15:09;;;;;;;3.40;2.30;;;;;;;23.17;56.23;98561.88;5093453;28;20207;-71
2023/09/05 09:17:36;;;;;;;2.35;1.92;;;;;;;23.45;53.43;98566.47;5093931;28;20321;-72
2023/09/05 09:20:05;;;;;;;2.55;1.92;;;;;;;23.41;54.52;98573.56;5093282;28;20220;-72
2023/09/05 09:22:31;;;;;;;2.38;1.88;;;;;;;23.49;55.19;98577.53;5092839;28;20208;-76
2023/09/05 09:24:57;;;;;;;2.00;1.90;;;;;;;23.61;53.33;98572.53;5094180;28;20581;-73
2023/09/05 09:27:24;;;;;;;1.80;1.70;;;;;;;23.74;52.84;98574.53;5092824;28;20636;-73
2023/09/05 09:29:55;;;;;;;2.08;1.83;;;;;;;23.63;54.13;98575.75;5092714;28;20242;-73
2023/09/05 09:32:22;;;;;;;1.92;1.75;;;;;;;23.94;52.12;98577.81;5093038;28;20207;-72
2023/09/05 09:34:51;;;;;;;3.65;1.80;;;;;;;23.99;52.18;98574.22;5093600;28;20203;-71
2023/09/05 09:37:27;;;;;;;2.22;1.80;;;;;;;24.22;51.97;98585.03;5088236;28;20197;-71
2023/09/05 09:40:05;;;;;;;3.30;2.10;;;;;;;24.02;52.57;98582.59;5072932;28;20224;-71
2023/09/05 09:42:33;;;;;;;2.08;1.80;;;;;;;24.33;52.37;98569.41;5072872;28;20251;-71
2023/09/05 09:45:08;;;;;;;1.65;1.52;;;;;;;24.48;50.10;98571.88;5072409;28;20266;-71
2023/09/05 09:47:35;;;;;;;2.33;1.75;;;;;;;24.51;50.25;98561.19;5072625;28;20184;-72
2023/09/05 09:50:03;;;;;;;2.17;1.98;;;;;;;24.28;51.31;98558.59;5072590;28;20228;-71
2023/09/05 09:52:34;;;;;;;2.75;1.90;;;;;;;24.41;51.06;98565.97;5072278;28;20576;-71
2023/09/05 09:55:04;;;;;;;3.13;2.30;;;;;;;24.29;52.42;98552.84;5073045;28;20189;-71
2023/09/05 09:57:38;;;;;;;2.33;2.00;;;;;;;24.56;52.38;98552.97;5072282;28;20667;-72
2023/09/05 10:00:15;;;;;;;2.35;2.00;;;;;;;24.42;52.58;98549.38;5072237;28;20743;-72
2023/09/05 10:02:43;;;;;;;2.28;1.80;;;;;;;24.58;50.76;98552.66;5072387;28;20230;-72
2023/09/05 10:05:11;;;;;;;1.50;1.40;;;;;;;24.71;48.81;98552.75;5072213;28;20205;-72
2023/09/05 10:07:39;;;;;;;1.67;1.58;;;;;;;24.81;49.46;98546.31;5054344;28;20205;-72
2023/09/05 10:10:06;;;;;;;1.90;1.48;;;;;;;25.00;49.36;98547.06;5073428;28;20224;-72
2023/09/05 10:12:33;;;;;;;3.25;2.35;;;;;;;24.67;49.69;98537.31;5075964;28;20406;-74
2023/09/05 10:15:04;;;;;;;2.60;2.33;;;;;;;24.66;50.30;98541.16;5058425;28;20205;-74
2023/09/05 10:17:31;;;;;;;7.10;3.33;;;;;;;24.76;50.95;98535.53;5076191;28;20194;-73
2023/09/05 10:19:59;;;;;;;2.65;2.03;;;;;;;25.05;51.39;98539.63;5075940;28;20220;-75
2023/09/05 10:22:25;;;;;;;2.50;1.63;;;;;;;25.19;51.86;98540.44;5075818;28;20215;-74
2023/09/05 10:24:53;;;;;;;2.00;1.80;;;;;;;25.34;51.22;98531.22;5075847;28;20209;-75
2023/09/05 10:27:20;;;;;;;1.67;1.50;;;;;;;25.09;49.95;98534.38;5075834;28;20207;-75
2023/09/05 10:29:49;;;;;;;1.90;1.70;;;;;;;25.34;49.74;98534.75;5075119;28;20236;-75
2023/09/05 10:32:18;;;;;;;1.58;1.48;;;;;;;25.48;50.02;98535.56;5075707;28;20208;-75
2023/09/05 10:34:50;;;;;;;2.20;1.67;;;;;;;25.55;48.47;98535.94;5075615;28;20667;-75
2023/09/05 10:37:21;;;;;;;1.92;1.55;;;;;;;25.66;48.59;98537.34;5075808;28;20215;-75
2023/09/05 10:39:49;;;;;;;2.78;1.58;;;;;;;25.61;48.92;98533.94;5075318;28;20227;-74
2023/09/05 10:42:17;;;;;;;2.17;1.60;;;;;;;25.77;50.55;98532.47;5075598;28;20200;-77
2023/09/05 10:44:46;;;;;;;2.75;1.90;;;;;;;25.59;49.14;98526.06;5074851;28;20683;-78
2023/09/05 10:47:29;;;;;;;2.25;2.00;;;;;;;25.73;48.47;98528.78;5075754;28;20575;-75
2023/09/05 10:50:09;;;;;;;1.73;1.58;;;;;;;25.78;49.79;98526.72;5075052;28;20715;-75
2023/09/05 10:52:36;;;;;;;1.77;1.67;;;;;;;25.80;48.89;98516.34;5075204;28;20615;-75
2023/09/05 10:55:29;;;;;;;1.73;1.45;;;;;;;25.86;49.29;98511.56;5075802;28;20204;-75
2023/09/05 10:57:56;;;;;;;1.70;1.60;;;;;;;25.78;47.25;98512.31;5074859;28;20197;-76
2023/09/05 11:00:26;;;;;;;2.30;1.52;;;;;;;25.87;48.60;98510.50;5075097;28;20333;-73
2023/09/05 11:02:55;;;;;;;1.60;1.50;;;;;;;25.89;46.90;98506.34;5075003;28;20200;-72
2023/09/05 11:05:26;;;;;;;2.17;1.42;;;;;;;25.78;47.27;98507.66;5075278;28;20246;-74
2023/09/05 11:07:55;;;;;;;3.22;1.65;;;;;;;25.87;48.46;98510.50;5075269;28;20185;-74
2023/09/05 11:10:29;;;;;;;2.50;1.40;;;;;;;25.66;47.42;98512.03;5074794;28;20282;-74
2023/09/05 11:12:56;;;;;;;1.63;1.52;;;;;;;25.81;49.17;98514.41;5074236;28;20299;-73
2023/09/05 11:15:33;;;;;;;2.28;1.77;;;;;;;26.01;47.52;98514.00;5074700;28;20295;-73
2023/09/05 11:18:05;;;;;;;1.73;1.63;;;;;;;26.15;47.79;98509.31;5074420;28;20204;-74
2023/09/05 11:20:45;;;;;;;3.08;1.70;;;;;;;26.10;48.12;98512.16;5075078;28;20220;-74
2023/09/05 11:23:18;;;;;;;1.90;1.80;;;;;;;26.18;46.82;98516.84;5074347;28;20199;-74
2023/09/05 11:25:53;;;;;;;1.65;1.50;;;;;;;26.03;46.91;98507.13;5074930;28;20208;-74
2023/09/05 11:28:22;;;;;;;1.50;1.40;;;;;;;25.73;47.44;98507.00;5075270;28;20246;-73
2023/09/05 11:30:51;;;;;;;2.58;1.73;;;;;;;25.92;47.30;98503.00;5074495;28;20267;-74
2023/09/05 11:33:19;;;;;;;1.73;1.50;;;;;;;25.96;47.29;98504.00;5074897;28;20209;-74
2023/09/05 11:35:48;;;;;;;1.67;1.55;;;;;;;25.99;45.28;98499.88;5074393;28;20663;-74